Time,TemperatureF,DewpointF,PressureIn,WindDirection,WindDirectionDegrees,WindSpeedMPH,WindSpeedGustMPH,Humidity,HourlyPrecipIn,Conditions,Clouds,dailyrainin,SoftwareType,DateUTC
2013-10-24 00:15:00,35.0,32.0,29.85,NW,311,3.0,6.0,87,0.00,,,0.00,,2013-10-24 04:15:00,
2013-10-24 00:24:00,35.0,32.0,29.85,NW,324,1.0,6.0,88,0.00,,,0.00,,2013-10-24 04:24:00,
2013-10-24 00:44:00,34.0,31.0,29.85,NW,305,2.0,4.0,90,0.00,,,0.00,,2013-10-24 04:44:00,
2013-10-24 00:54:00,34.0,31.0,29.85,WNW,292,3.0,5.0,90,0.00,,,0.00,,2013-10-24 04:54:00,
2013-10-24 01:13:00,35.0,32.0,29.85,NW,313,3.0,7.0,89,0.00,,,0.00,,2013-10-24 05:13:00,
2013-10-24 01:22:00,35.0,32.0,29.85,West,281,3.0,5.0,89,0.00,,,0.00,,2013-10-24 05:22:00,
2013-10-24 01:43:00,34.0,31.0,29.85,West,260,0.0,1.0,89,0.00,,,0.00,,2013-10-24 05:43:00,
2013-10-24 01:53:00,34.0,31.0,29.85,WNW,299,0.0,2.0,89,0.00,,,0.00,,2013-10-24 05:53:00,
2013-10-24 02:12:00,34.0,31.0,29.85,WNW,300,0.0,2.0,90,0.00,,,0.00,,2013-10-24 06:12:00,
2013-10-24 02:22:00,33.0,31.0,29.86,NW,314,2.0,4.0,92,0.00,,,0.00,,2013-10-24 06:22:00,
2013-10-24 02:42:00,33.0,31.0,29.85,WNW,302,3.0,5.0,91,0.00,,,0.00,,2013-10-24 06:42:00,
2013-10-24 02:52:00,33.0,30.0,29.86,WNW,289,2.0,5.0,89,0.00,,,0.00,,2013-10-24 06:52:00,
2013-10-24 03:12:00,33.0,30.0,29.86,WNW,299,1.0,4.0,90,0.00,,,0.00,,2013-10-24 07:12:00,
2013-10-24 03:22:00,34.0,31.0,29.87,NW,310,2.0,7.0,89,0.00,,,0.00,,2013-10-24 07:22:00,
2013-10-24 03:42:00,34.0,31.0,29.86,WNW,286,0.0,2.0,89,0.00,,,0.00,,2013-10-24 07:42:00,
2013-10-24 03:52:00,34.0,31.0,29.87,ENE,64,1.0,7.0,90,0.00,,,0.00,,2013-10-24 07:52:00,
2013-10-24 04:12:00,33.0,30.0,29.87,WNW,301,2.0,6.0,90,0.00,,,0.00,,2013-10-24 08:12:00,
2013-10-24 04:22:00,33.0,30.0,29.87,WNW,299,0.0,8.0,89,0.00,,,0.00,,2013-10-24 08:22:00,
2013-10-24 04:42:00,33.0,30.0,29.87,West,271,2.0,6.0,90,0.00,,,0.00,,2013-10-24 08:42:00,
2013-10-24 04:53:00,33.0,30.0,29.88,NW,320,0.0,3.0,90,0.00,,,0.00,,2013-10-24 08:53:00,
2013-10-24 05:12:00,33.0,30.0,29.88,South,176,1.0,2.0,90,0.00,,,0.00,,2013-10-24 09:12:00,
2013-10-24 05:22:00,33.0,30.0,29.88,SSE,164,0.0,3.0,90,0.00,,,0.00,,2013-10-24 09:22:00,
2013-10-24 05:43:00,33.0,30.0,29.89,West,279,0.0,3.0,90,0.00,,,0.00,,2013-10-24 09:43:00,
2013-10-24 05:53:00,33.0,30.0,29.89,WSW,245,0.0,3.0,90,0.00,,,0.00,,2013-10-24 09:53:00,
2013-10-24 06:13:00,33.0,30.0,29.89,South,172,0.0,4.0,90,0.00,,,0.00,,2013-10-24 10:13:00,
2013-10-24 06:23:00,34.0,31.0,29.89,WNW,287,2.0,6.0,89,0.00,,,0.00,,2013-10-24 10:23:00,
2013-10-24 06:43:00,33.0,30.0,29.90,SSW,201,0.0,5.0,90,0.00,,,0.00,,2013-10-24 10:43:00,
2013-10-24 06:52:00,33.0,31.0,29.90,NW,306,0.0,4.0,91,0.00,,,0.00,,2013-10-24 10:52:00,
2013-10-24 07:12:00,33.0,31.0,29.90,WNW,288,0.0,3.0,91,0.00,,,0.00,,2013-10-24 11:12:00,
2013-10-24 07:22:00,33.0,31.0,29.90,West,281,0.0,5.0,92,0.00,,,0.00,,2013-10-24 11:22:00,
2013-10-24 07:42:00,33.0,31.0,29.90,SW,221,0.0,5.0,93,0.00,,,0.00,,2013-10-24 11:42:00,
2013-10-24 07:53:00,32.0,30.0,29.91,WNW,291,1.0,6.0,94,0.00,,,0.00,,2013-10-24 11:53:00,
2013-10-24 08:12:00,32.0,31.0,29.91,SW,236,1.0,4.0,95,0.00,,,0.00,,2013-10-24 12:12:00,
2013-10-24 08:22:00,32.0,31.0,29.91,NW,304,0.0,3.0,95,0.00,,,0.00,,2013-10-24 12:22:00,
2013-10-24 08:42:00,32.0,31.0,29.92,WSW,252,0.0,6.0,95,0.00,,,0.00,,2013-10-24 12:42:00,
2013-10-24 08:52:00,32.0,31.0,29.93,West,281,1.0,6.0,95,0.00,,,0.00,,2013-10-24 12:52:00,
2013-10-24 09:12:00,33.0,32.0,29.93,WNW,285,0.0,2.0,95,0.00,,,0.00,,2013-10-24 13:12:00,
2013-10-24 09:22:00,33.0,31.0,29.94,SE,128,0.0,4.0,94,0.00,,,0.00,,2013-10-24 13:22:00,
2013-10-24 09:32:00,33.0,31.0,29.94,SE,128,0.0,4.0,94,0.00,,,0.00,,2013-10-24 13:32:00,
2013-10-24 09:42:00,33.0,31.0,29.94,SE,128,0.0,4.0,94,0.00,,,0.00,,2013-10-24 13:42:00,
2013-10-24 12:23:00,36.0,30.0,29.96,WNW,290,5.0,12.0,78,0.00,,,0.02,,2013-10-24 16:23:00,
2013-10-24 12:42:00,36.0,30.0,29.96,WNW,288,5.0,12.0,79,0.00,,,0.02,,2013-10-24 16:42:00,
2013-10-24 12:53:00,37.0,29.0,29.96,NNW,343,6.0,15.0,74,0.00,,,0.02,,2013-10-24 16:53:00,
2013-10-24 13:12:00,37.0,30.0,29.96,NW,311,5.0,12.0,75,0.00,,,0.02,,2013-10-24 17:12:00,
2013-10-24 13:22:00,38.0,29.0,29.95,NW,306,7.0,16.0,71,0.00,,,0.02,,2013-10-24 17:22:00,
2013-10-24 13:43:00,38.0,29.0,29.95,West,259,6.0,17.0,69,0.00,,,0.02,,2013-10-24 17:43:00,
2013-10-24 13:52:00,38.0,28.0,29.95,WNW,301,8.0,15.0,67,0.00,,,0.02,,2013-10-24 17:52:00,
2013-10-24 14:12:00,38.0,28.0,29.95,WNW,298,8.0,15.0,68,0.00,,,0.02,,2013-10-24 18:12:00,
2013-10-24 14:23:00,38.0,29.0,29.95,NW,310,5.0,14.0,70,0.00,,,0.02,,2013-10-24 18:23:00,
2013-10-24 14:42:00,38.0,29.0,29.95,NW,319,4.0,17.0,70,0.00,,,0.02,,2013-10-24 18:42:00,
2013-10-24 14:53:00,38.0,28.0,29.96,WNW,295,11.0,21.0,67,0.00,,,0.02,,2013-10-24 18:53:00,
2013-10-24 15:12:00,38.0,29.0,29.96,WNW,286,4.0,9.0,69,0.00,,,0.02,,2013-10-24 19:12:00,
2013-10-24 15:22:00,38.0,28.0,29.96,NNW,341,6.0,17.0,67,0.00,,,0.02,,2013-10-24 19:22:00,
2013-10-24 15:43:00,39.0,29.0,29.96,NW,308,6.0,11.0,67,0.00,,,0.02,,2013-10-24 19:43:00,
2013-10-24 15:53:00,39.0,29.0,29.96,NW,324,6.0,16.0,66,0.00,,,0.02,,2013-10-24 19:53:00,
2013-10-24 16:12:00,39.0,29.0,29.97,West,276,4.0,15.0,68,0.00,,,0.02,,2013-10-24 20:12:00,
2013-10-24 16:23:00,38.0,28.0,29.98,WNW,293,5.0,14.0,68,0.00,,,0.02,,2013-10-24 20:23:00,
2013-10-24 16:43:00,38.0,29.0,29.98,NW,312,4.0,11.0,71,0.00,,,0.02,,2013-10-24 20:43:00,
2013-10-24 16:53:00,38.0,29.0,29.98,NW,314,5.0,9.0,70,0.00,,,0.02,,2013-10-24 20:53:00,
2013-10-24 17:12:00,37.0,28.0,29.98,NW,308,8.0,19.0,70,0.00,,,0.02,,2013-10-24 21:12:00,
2013-10-24 17:22:00,38.0,29.0,29.98,West,268,5.0,16.0,70,0.00,,,0.02,,2013-10-24 21:22:00,
2013-10-24 17:43:00,38.0,29.0,29.98,NW,307,7.0,19.0,70,0.00,,,0.02,,2013-10-24 21:43:00,
2013-10-24 17:54:00,38.0,29.0,29.99,NW,319,6.0,13.0,70,0.00,,,0.02,,2013-10-24 21:54:00,
2013-10-24 18:14:00,37.0,29.0,29.99,NW,310,5.0,12.0,72,0.00,,,0.02,,2013-10-24 22:14:00,
2013-10-24 18:24:00,37.0,29.0,29.99,NW,315,3.0,11.0,72,0.00,,,0.02,,2013-10-24 22:24:00,
2013-10-24 18:43:00,37.0,29.0,30.00,WNW,292,3.0,10.0,73,0.00,,,0.02,,2013-10-24 22:43:00,
2013-10-24 18:54:00,36.0,29.0,30.01,NW,319,7.0,13.0,75,0.00,,,0.02,,2013-10-24 22:54:00,
2013-10-24 19:13:00,36.0,30.0,30.01,WNW,302,5.0,12.0,78,0.00,,,0.02,,2013-10-24 23:13:00,
2013-10-24 19:22:00,35.0,29.0,30.02,NW,323,3.0,10.0,78,0.00,,,0.02,,2013-10-24 23:22:00,
2013-10-24 19:43:00,35.0,29.0,30.02,WNW,295,6.0,13.0,79,0.00,,,0.02,,2013-10-24 23:43:00,
2013-10-24 19:53:00,35.0,29.0,30.02,WNW,294,3.0,9.0,79,0.00,,,0.02,,2013-10-24 23:53:00,
2013-10-24 20:12:00,35.0,29.0,30.02,NNW,328,7.0,13.0,80,0.00,,,0.02,,2013-10-25 00:12:00,
2013-10-24 20:22:00,35.0,29.0,30.03,NW,306,3.0,10.0,79,0.00,,,0.02,,2013-10-25 00:22:00,
2013-10-24 20:42:00,34.0,28.0,30.03,NW,318,5.0,12.0,80,0.00,,,0.02,,2013-10-25 00:42:00,
2013-10-24 20:52:00,34.0,28.0,30.03,WNW,302,5.0,11.0,80,0.00,,,0.02,,2013-10-25 00:52:00,
2013-10-24 21:12:00,34.0,28.0,30.03,NW,310,2.0,11.0,80,0.00,,,0.02,,2013-10-25 01:12:00,
2013-10-24 21:22:00,34.0,28.0,30.03,WNW,287,1.0,6.0,80,0.00,,,0.02,,2013-10-25 01:22:00,
2013-10-24 21:43:00,34.0,29.0,30.04,NNW,341,0.0,5.0,81,0.00,,,0.02,,2013-10-25 01:43:00,
2013-10-24 21:53:00,33.0,28.0,30.05,SSW,213,0.0,3.0,82,0.00,,,0.02,,2013-10-25 01:53:00,
2013-10-24 22:12:00,33.0,28.0,30.05,WSW,245,0.0,1.0,83,0.00,,,0.02,,2013-10-25 02:12:00,
2013-10-24 22:23:00,33.0,29.0,30.06,WNW,297,0.0,4.0,84,0.00,,,0.02,,2013-10-25 02:23:00,
2013-10-24 22:43:00,33.0,29.0,30.06,NW,311,4.0,7.0,84,0.00,,,0.02,,2013-10-25 02:43:00,
2013-10-24 22:52:00,33.0,28.0,30.06,NW,308,5.0,8.0,83,0.00,,,0.02,,2013-10-25 02:52:00,
2013-10-24 23:12:00,33.0,28.0,30.06,NW,315,5.0,7.0,83,0.00,,,0.02,,2013-10-25 03:12:00,
2013-10-24 23:23:00,34.0,29.0,30.06,WNW,293,5.0,10.0,83,0.00,,,0.02,,2013-10-25 03:23:00,
2013-10-24 23:44:00,33.0,28.0,30.06,West,281,4.0,7.0,83,0.00,,,0.02,,2013-10-25 03:44:00,
2013-10-24 23:54:00,34.0,30.0,30.07,NW,311,3.0,8.0,84,0.00,,,0.02,,2013-10-25 03:54:00,